Time;durP1;ratioP1;P1;durP2;ratioP2;P2;SDS_P1;SDS_P2;PMS_P1;PMS_P2;Temp;Humidity;BMP_temperature;BMP_pressure;BME280_temperature;BME280_humidity;BME280_pressure;Samples;Min_cycle;Max_cycle;Signal;HPM_P1;HPM_P2
2023/12/27 00:00:29;;;;;;;17.15;7.70;;;;;;;2.85;100.00;102153.88;6087754;19;20006;-73
2023/12/27 00:02:36;;;;;;;15.38;7.68;;;;;;;2.90;100.00;102140.94;6086083;19;20002;-74
2023/12/27 00:04:39;;;;;;;15.10;8.60;;;;;;;2.92;100.00;102139.25;6088171;19;20032;-73
2023/12/27 00:06:46;;;;;;;14.73;8.45;;;;;;;2.86;100.00;102138.31;6085554;19;20021;-73
2023/12/27 00:08:52;;;;;;;15.48;8.85;;;;;;;2.83;100.00;102137.41;6085954;19;20491;-73
2023/12/27 00:10:59;;;;;;;17.73;9.40;;;;;;;2.89;100.00;102131.41;6086607;19;20020;-73
2023/12/27 00:13:04;;;;;;;11.07;6.53;;;;;;;2.84;100.00;102128.75;6086091;19;20010;-73
2023/12/27 00:15:10;;;;;;;18.30;7.60;;;;;;;2.86;100.00;102135.72;6087225;19;20759;-74
2023/12/27 00:17:16;;;;;;;14.75;8.07;;;;;;;2.89;100.00;102136.63;6086139;19;20098;-74
2023/12/27 00:19:22;;;;;;;14.02;7.63;;;;;;;2.87;100.00;102134.03;6085327;19;20011;-73
2023/12/27 00:21:27;;;;;;;14.50;7.93;;;;;;;2.85;100.00;102136.59;6084734;19;20021;-73
2023/12/27 00:23:35;;;;;;;15.23;8.15;;;;;;;2.83;100.00;102130.50;6084368;19;20007;-73
2023/12/27 00:25:43;;;;;;;15.65;7.30;;;;;;;2.84;100.00;102126.16;6081794;19;20007;-73
2023/12/27 00:27:47;;;;;;;16.13;7.88;;;;;;;2.90;100.00;102121.06;6088382;19;20491;-73
2023/12/27 00:29:53;;;;;;;15.85;8.38;;;;;;;2.95;100.00;102127.19;6081518;19;20058;-73
2023/12/27 00:31:58;;;;;;;17.00;8.80;;;;;;;2.92;100.00;102129.72;6085907;19;20003;-74
2023/12/27 00:34:03;;;;;;;15.75;7.15;;;;;;;2.90;100.00;102141.84;6084950;19;20006;-74
2023/12/27 00:36:12;;;;;;;15.20;8.25;;;;;;;2.97;100.00;102133.25;6084202;19;20086;-73
2023/12/27 00:38:17;;;;;;;18.80;7.45;;;;;;;3.00;100.00;102135.00;6086055;19;20018;-74
2023/12/27 00:40:23;;;;;;;14.90;8.27;;;;;;;3.00;100.00;102130.72;6086055;19;20018;-74
2023/12/27 00:42:31;;;;;;;14.18;7.72;;;;;;;3.05;100.00;102131.63;6084918;19;20500;-74
2023/12/27 00:44:36;;;;;;;14.63;7.40;;;;;;;3.16;100.00;102133.44;6085138;19;20015;-73
2023/12/27 00:46:41;;;;;;;15.45;7.93;;;;;;;3.17;100.00;102138.69;6083458;19;20385;-74
2023/12/27 00:48:47;;;;;;;14.55;8.10;;;;;;;3.18;100.00;102136.94;6083326;19;20033;-73
2023/12/27 00:50:52;;;;;;;13.82;7.50;;;;;;;3.27;100.00;102135.31;6084639;19;20007;-73
2023/12/27 00:52:57;;;;;;;21.85;8.13;;;;;;;3.36;100.00;102126.75;6077992;19;20010;-73
2023/12/27 00:55:03;;;;;;;14.80;7.55;;;;;;;3.40;100.00;102118.13;6084841;19;20027;-73
2023/12/27 00:57:08;;;;;;;20.20;8.82;;;;;;;3.38;100.00;102116.38;6087502;19;20042;-74
2023/12/27 00:59:16;;;;;;;19.02;8.00;;;;;;;3.34;100.00;102118.06;6081680;19;20010;-74
2023/12/27 01:01:21;;;;;;;10.63;6.28;;;;;;;3.36;100.00;102110.28;6085550;19;20014;-73
2023/12/27 01:03:27;;;;;;;14.35;7.35;;;;;;;3.37;100.00;102101.63;6086001;19;20014;-73
2023/12/27 01:05:33;;;;;;;13.15;6.95;;;;;;;3.35;100.00;102103.38;6084765;19;20023;-73
2023/12/27 01:07:38;;;;;;;22.95;8.35;;;;;;;3.33;100.00;102098.13;6082446;19;20013;-74
2023/12/27 01:09:45;;;;;;;20.80;8.43;;;;;;;3.31;100.00;102102.44;6084920;19;20015;-74
2023/12/27 01:11:51;;;;;;;18.08;7.72;;;;;;;3.28;100.00;102107.63;6083996;19;20019;-73
2023/12/27 01:13:56;;;;;;;21.00;8.68;;;;;;;3.24;100.00;102111.06;6085958;19;20002;-72
2023/12/27 01:16:04;;;;;;;13.57;7.10;;;;;;;3.23;100.00;102110.16;6084320;19;20014;-73
2023/12/27 01:18:11;;;;;;;18.40;7.80;;;;;;;3.20;100.00;102117.94;6085207;19;20006;-72
2023/12/27 01:20:17;;;;;;;14.30;6.95;;;;;;;3.20;100.00;102117.06;6082421;19;20014;-72
2023/12/27 01:22:19;;;;;;;18.50;7.70;;;;;;;3.22;100.00;102113.63;6084309;19;20015;-72
2023/12/27 01:24:25;;;;;;;14.55;8.30;;;;;;;3.22;100.00;102117.94;6083841;19;20010;-73
2023/12/27 01:26:30;;;;;;;15.00;7.00;;;;;;;3.17;100.00;102124.81;6083210;19;20049;-73
2023/12/27 01:28:35;;;;;;;17.13;8.18;;;;;;;3.11;100.00;102119.53;6083261;19;20009;-73
2023/12/27 01:30:41;;;;;;;14.43;7.28;;;;;;;3.07;100.00;102121.25;6083679;19;20011;-73
2023/12/27 01:32:50;;;;;;;21.38;8.02;;;;;;;3.02;100.00;102118.59;6082886;19;20244;-73
2023/12/27 01:34:56;;;;;;;16.38;7.65;;;;;;;3.02;100.00;102118.59;6083306;19;20365;-73
2023/12/27 01:37:04;;;;;;;17.83;8.45;;;;;;;2.99;100.00;102118.56;6081835;19;20006;-73
2023/12/27 01:39:12;;;;;;;17.00;8.48;;;;;;;2.96;100.00;102109.88;6083888;19;20583;-73
2023/12/27 01:41:18;;;;;;;18.70;8.43;;;;;;;3.02;100.00;102117.72;6079777;19;20010;-73
2023/12/27 01:43:23;;;;;;;15.93;7.43;;;;;;;3.05;100.00;102120.34;6080356;19;20451;-76
2023/12/27 01:45:28;;;;;;;11.98;6.90;;;;;;;3.06;100.00;102120.38;6083643;19;20688;-73
2023/12/27 01:47:33;;;;;;;20.50;7.65;;;;;;;3.08;100.00;102110.88;6084160;19;20014;-73
2023/12/27 01:49:40;;;;;;;16.58;8.38;;;;;;;3.10;100.00;102107.44;6082275;19;20014;-73
2023/12/27 01:51:46;;;;;;;14.57;7.85;;;;;;;3.11;100.00;102102.25;6082716;19;20594;-76
2023/12/27 01:53:53;;;;;;;14.48;7.85;;;;;;;3.21;100.00;102103.19;6080022;19;20010;-73
2023/12/27 01:55:59;;;;;;;15.82;8.63;;;;;;;3.33;100.00;102100.75;6081708;19;20560;-72
2023/12/27 01:58:08;;;;;;;13.82;7.97;;;;;;;3.37;100.00;102101.63;6083055;19;20466;-73
2023/12/27 02:00:15;;;;;;;15.02;6.95;;;;;;;3.37;100.00;102096.44;6080181;19;20104;-72
2023/12/27 02:02:21;;;;;;;17.63;7.93;;;;;;;3.39;100.00;102100.78;6083902;19;20089;-72
2023/12/27 02:04:28;;;;;;;15.13;8.57;;;;;;;3.46;100.00;102091.34;6083405;19;20542;-73
2023/12/27 02:06:40;;;;;;;14.90;7.68;;;;;;;3.56;100.00;102092.28;6078834;19;20295;-74
2023/12/27 02:08:52;;;;;;;21.03;8.73;;;;;;;3.49;100.00;102097.41;6080789;19;20022;-74
2023/12/27 02:10:59;;;;;;;19.95;8.38;;;;;;;3.50;100.00;102100.88;6080548;19;20011;-75
2023/12/27 02:13:03;;;;;;;15.25;7.45;;;;;;;3.60;100.00;102109.63;6082136;19;20070;-72
2023/12/27 02:15:09;;;;;;;29.85;8.63;;;;;;;3.61;100.00;102116.59;6081022;19;20021;-73
2023/12/27 02:17:19;;;;;;;16.92;8.43;;;;;;;3.67;100.00;102103.66;6080792;19;20015;-73
2023/12/27 02:19:29;;;;;;;16.38;9.18;;;;;;;3.67;100.00;102093.25;6078593;19;20014;-75
2023/12/27 02:21:38;;;;;;;21.50;8.52;;;;;;;3.67;100.00;102099.31;6082686;19;20011;-74
2023/12/27 02:23:44;;;;;;;20.20;8.43;;;;;;;3.69;100.00;102101.94;6083146;19;20009;-73
2023/12/27 02:25:54;;;;;;;16.20;8.60;;;;;;;3.64;100.00;102099.28;6083229;19;20010;-75
2023/12/27 02:27:56;;;;;;;13.82;8.73;;;;;;;3.67;100.00;102093.25;6083026;19;20010;-72
2023/12/27 02:30:01;;;;;;;;;;;;;;;3.68;100.00;102097.56;6081270;19;20011;-72
2023/12/27 02:32:09;;;;;;;13.95;7.90;;;;;;;3.72;100.00;102099.34;6081553;19;19918;-73
2023/12/27 02:34:15;;;;;;;18.52;7.53;;;;;;;3.75;100.00;102091.56;6081197;19;20448;-73
2023/12/27 02:36:21;;;;;;;17.30;7.18;;;;;;;3.82;100.00;102084.69;6080373;19;20010;-74
2023/12/27 02:38:26;;;;;;;18.50;8.52;;;;;;;3.85;100.00;102085.59;6081363;19;20049;-73
2023/12/27 02:40:33;;;;;;;23.80;9.07;;;;;;;3.90;100.00;102078.69;6079402;19;20006;-73
2023/12/27 02:42:42;;;;;;;14.90;8.18;;;;;;;3.95;100.00;102071.78;6081514;19;20034;-73
2023/12/27 02:44:47;;;;;;;14.88;8.18;;;;;;;4.01;100.00;102070.97;6076873;19;20014;-73
2023/12/27 02:46:51;;;;;;;16.95;8.65;;;;;;;4.02;100.00;102064.03;6087204;19;20115;-73
2023/12/27 02:48:57;;;;;;;18.50;8.65;;;;;;;3.97;100.00;102061.38;6087113;19;20063;-72
2023/12/27 02:50:59;;;;;;;17.23;7.20;;;;;;;4.04;100.00;102063.19;6084868;19;20120;-74
2023/12/27 02:53:04;;;;;;;15.73;8.27;;;;;;;4.11;100.00;102061.50;6084104;19;20028;-73
2023/12/27 02:55:07;;;;;;;13.63;7.40;;;;;;;4.13;100.00;102047.63;6085571;19;20010;-73
2023/12/27 02:57:13;;;;;;;22.80;9.40;;;;;;;4.21;100.00;102046.78;6084046;19;20034;-73
2023/12/27 02:59:20;;;;;;;21.85;9.80;;;;;;;4.15;100.00;102038.09;6081201;19;20435;-73
2023/12/27 03:01:26;;;;;;;17.33;10.35;;;;;;;4.22;100.00;102033.78;6078795;19;20013;-73
2023/12/27 03:03:33;;;;;;;21.30;9.38;;;;;;;4.19;100.00;102028.59;6081730;19;20006;-73
2023/12/27 03:05:37;;;;;;;19.88;9.35;;;;;;;4.18;100.00;102022.47;6084890;19;20010;-73
2023/12/27 03:07:42;;;;;;;19.08;8.20;;;;;;;4.18;100.00;102022.47;6082672;19;20481;-74
2023/12/27 03:09:47;;;;;;;20.30;9.13;;;;;;;4.17;100.00;102019.88;6084412;19;20043;-74
2023/12/27 03:11:53;;;;;;;21.98;10.80;;;;;;;4.15;100.00;102011.19;6078427;19;20007;-73
2023/12/27 03:13:58;;;;;;;23.27;10.00;;;;;;;4.15;100.00;102011.19;6082286;19;20767;-74
2023/12/27 03:16:09;;;;;;;29.25;11.30;;;;;;;4.17;100.00;102006.88;6082800;19;20009;-73
2023/12/27 03:18:15;;;;;;;19.27;9.00;;;;;;;4.16;100.00;102006.03;6080187;19;20007;-73
2023/12/27 03:20:20;;;;;;;26.90;9.68;;;;;;;4.15;100.00;102000.81;6083341;19;20316;-73
2023/12/27 03:22:25;;;;;;;22.30;11.05;;;;;;;4.19;100.00;101992.16;6085289;19;20074;-73
2023/12/27 03:24:30;;;;;;;24.05;11.15;;;;;;;4.29;100.00;101990.44;6083733;19;20014;-73
2023/12/27 03:26:35;;;;;;;18.05;11.27;;;;;;;4.23;100.00;101988.69;6080557;19;20010;-72
2023/12/27 03:28:40;;;;;;;24.05;10.23;;;;;;;4.26;100.00;101987.84;6083618;19;20007;-73
2023/12/27 03:30:45;;;;;;;22.15;10.68;;;;;;;4.26;100.00;101983.50;6080836;19;20463;-73
2023/12/27 03:32:51;;;;;;;19.13;10.18;;;;;;;4.25;100.00;101978.31;6085176;19;20177;-74
2023/12/27 03:34:56;;;;;;;19.17;10.43;;;;;;;4.32;100.00;101972.28;6085793;19;20578;-73
2023/12/27 03:37:02;;;;;;;19.63;9.95;;;;;;;4.34;100.00;101975.72;6078418;19;20014;-73
2023/12/27 03:39:07;;;;;;;24.02;10.80;;;;;;;4.32;100.00;101969.66;6083437;19;20038;-75
2023/12/27 03:41:15;;;;;;;23.30;11.85;;;;;;;4.37;100.00;101960.09;6086901;19;20015;-75
2023/12/27 03:43:20;;;;;;;26.05;11.23;;;;;;;4.33;100.00;101960.97;6085314;19;20371;-73
2023/12/27 03:45:26;;;;;;;27.42;12.00;;;;;;;4.35;100.00;101959.25;6083041;19;20038;-73
2023/12/27 03:47:28;;;;;;;26.77;12.20;;;;;;;4.31;100.00;101953.16;6084148;19;20056;-72
2023/12/27 03:49:36;;;;;;;19.30;10.82;;;;;;;4.36;100.00;101955.78;6085541;19;20010;-73
2023/12/27 03:51:41;;;;;;;28.67;12.23;;;;;;;4.37;100.00;101958.41;6084008;19;20492;-72
2023/12/27 03:53:46;;;;;;;21.83;11.43;;;;;;;4.40;100.00;101945.41;6082346;19;20032;-73
2023/12/27 03:55:51;;;;;;;18.42;11.40;;;;;;;4.38;100.00;101941.91;6080381;19;20014;-73
2023/12/27 03:57:57;;;;;;;21.02;11.23;;;;;;;4.36;100.00;101933.22;6080923;19;20003;-73
2023/12/27 03:59:59;;;;;;;19.23;11.35;;;;;;;4.33;100.00;101935.81;6084430;19;20007;-73
2023/12/27 04:02:04;;;;;;;27.67;10.70;;;;;;;4.33;100.00;101928.00;6082787;19;20002;-73
2023/12/27 04:04:18;;;;;;;22.67;11.85;;;;;;;4.35;100.00;101915.88;6082795;19;20017;-73
2023/12/27 04:06:26;;;;;;;22.77;12.50;;;;;;;4.33;100.00;101920.22;6084607;19;20400;-73
2023/12/27 04:08:31;;;;;;;21.25;11.13;;;;;;;4.34;100.00;101905.47;6085187;19;20103;-73
2023/12/27 04:10:38;;;;;;;22.23;10.32;;;;;;;4.37;100.00;101903.75;6082502;19;20382;-73
2023/12/27 04:12:43;;;;;;;21.90;12.43;;;;;;;4.36;100.00;101904.59;6082722;19;20493;-71
2023/12/27 04:14:51;;;;;;;17.98;10.43;;;;;;;4.42;100.00;101900.28;6084515;19;20487;-73
2023/12/27 04:17:01;;;;;;;22.92;11.60;;;;;;;4.43;100.00;101902.03;6086737;19;20011;-72
2023/12/27 04:19:03;;;;;;;19.48;10.07;;;;;;;4.43;100.00;101896.81;6084875;19;20538;-73
2023/12/27 04:21:08;;;;;;;29.23;10.90;;;;;;;4.48;100.00;101890.75;6081576;19;20007;-72
2023/12/27 04:23:16;;;;;;;23.08;11.20;;;;;;;4.46;100.00;101887.28;6082909;19;20071;-73
2023/12/27 04:25:21;;;;;;;23.98;10.77;;;;;;;4.52;100.00;101883.81;6084333;19;20520;-73
2023/12/27 04:27:26;;;;;;;17.25;10.23;;;;;;;4.53;100.00;101883.81;6082573;19;20787;-73
2023/12/27 04:29:31;;;;;;;19.52;11.00;;;;;;;4.53;100.00;101888.13;6083733;19;20010;-73
2023/12/27 04:31:36;;;;;;;25.17;11.88;;;;;;;4.52;100.00;101876.00;6082328;19;20017;-74
2023/12/27 04:33:41;;;;;;;16.98;9.57;;;;;;;4.54;100.00;101877.75;6083650;19;20010;-73
2023/12/27 04:35:46;;;;;;;18.80;9.88;;;;;;;4.54;100.00;101876.88;6083501;19;20509;-73
2023/12/27 04:37:53;;;;;;;17.13;9.63;;;;;;;4.53;100.00;101877.72;6083309;19;20013;-73
2023/12/27 04:39:58;;;;;;;31.10;9.88;;;;;;;4.58;100.00;101886.41;6083029;19;20003;-72
2023/12/27 04:42:03;;;;;;;20.23;10.38;;;;;;;4.57;100.00;101879.47;6081915;19;20014;-73
2023/12/27 04:44:11;;;;;;;25.35;9.52;;;;;;;4.64;100.00;101881.22;6084657;19;20446;-72
2023/12/27 04:46:16;;;;;;;14.50;8.38;;;;;;;4.67;100.00;101867.34;6082330;19;20027;-73
2023/12/27 04:48:22;;;;;;;31.48;9.18;;;;;;;4.71;100.00;101871.66;6083805;19;20010;-74
2023/12/27 04:50:27;;;;;;;22.95;8.77;;;;;;;4.74;100.00;101866.47;6085460;19;20010;-73
2023/12/27 04:52:32;;;;;;;12.63;7.32;;;;;;;4.72;100.00;101857.81;6080912;19;20414;-72
2023/12/27 04:54:37;;;;;;;22.00;8.38;;;;;;;4.76;100.00;101851.72;6083514;19;20013;-72
2023/12/27 04:56:44;;;;;;;19.23;8.82;;;;;;;4.75;100.00;101848.25;6084490;19;20378;-73
2023/12/27 04:58:47;;;;;;;19.52;9.52;;;;;;;4.77;100.00;101840.44;6083673;19;20010;-73
2023/12/27 05:00:52;;;;;;;22.65;10.52;;;;;;;4.78;100.00;101848.25;6083389;19;20023;-74
2023/12/27 05:02:58;;;;;;;22.33;9.32;;;;;;;4.80;100.00;101840.44;6084331;19;20086;-72
2023/12/27 05:05:00;;;;;;;18.40;9.40;;;;;;;4.76;100.00;101823.94;6083709;19;20364;-72
2023/12/27 05:07:06;;;;;;;21.50;9.75;;;;;;;4.80;100.00;101823.06;6084043;19;20041;-73
2023/12/27 05:09:08;;;;;;;22.13;8.50;;;;;;;4.80;100.00;101820.47;6083245;19;20034;-72
2023/12/27 05:11:17;;;;;;;26.55;10.30;;;;;;;4.86;100.00;101819.59;6076223;19;20341;-72
2023/12/27 05:13:26;;;;;;;18.27;8.70;;;;;;;4.83;100.00;101823.06;6083420;19;20014;-74
2023/12/27 05:15:28;;;;;;;15.77;8.18;;;;;;;4.87;100.00;101817.84;6081235;19;20011;-76
2023/12/27 05:17:33;;;;;;;17.38;9.07;;;;;;;4.87;100.00;101821.34;6082404;19;20162;-75
2023/12/27 05:19:38;;;;;;;15.88;8.85;;;;;;;4.90;100.00;101817.84;6082416;19;20014;-73
2023/12/27 05:21:42;;;;;;;15.95;7.65;;;;;;;4.91;100.00;101817.00;6081575;19;20010;-72
2023/12/27 05:23:47;;;;;;;27.08;8.70;;;;;;;4.91;100.00;101809.19;6082598;19;20027;-72
2023/12/27 05:25:53;;;;;;;20.52;9.18;;;;;;;4.88;100.00;101796.16;6082094;19;20014;-72
2023/12/27 05:27:58;;;;;;;16.05;8.15;;;;;;;4.91;100.00;101802.22;6081010;19;20019;-72
2023/12/27 05:30:08;;;;;;;22.70;7.55;;;;;;;4.95;100.00;101805.69;6074752;19;20030;-73
2023/12/27 05:32:16;;;;;;;22.50;8.35;;;;;;;4.96;100.00;101808.28;6083300;19;20007;-73
2023/12/27 05:34:21;;;;;;;16.23;8.55;;;;;;;4.93;100.00;101800.50;6082160;19;20082;-73
2023/12/27 05:36:26;;;;;;;15.85;8.35;;;;;;;4.94;100.00;101801.34;6081158;19;20007;-73
2023/12/27 05:38:32;;;;;;;16.35;7.28;;;;;;;4.96;100.00;101794.41;6082420;19;20006;-72
2023/12/27 05:40:38;;;;;;;23.98;9.25;;;;;;;4.96;100.00;101794.41;6080793;19;20011;-73
2023/12/27 05:42:43;;;;;;;16.92;8.65;;;;;;;4.99;100.00;101789.19;6080519;19;20014;-73
2023/12/27 05:44:50;;;;;;;14.07;7.60;;;;;;;4.99;100.00;101791.78;6082095;19;20550;-73
2023/12/27 05:46:58;;;;;;;24.67;8.38;;;;;;;5.02;100.00;101784.81;6079656;19;20097;-72
2023/12/27 05:49:03;;;;;;;13.77;7.40;;;;;;;4.98;100.00;101782.25;6080262;19;20006;-73
2023/12/27 05:51:08;;;;;;;16.83;8.73;;;;;;;5.00;100.00;101777.88;6083809;19;20389;-73
2023/12/27 05:53:14;;;;;;;16.75;8.05;;;;;;;5.02;100.00;101770.94;6077249;19;20024;-72
2023/12/27 05:55:19;;;;;;;14.25;8.93;;;;;;;5.05;100.00;101783.94;6082311;19;20018;-72
2023/12/27 05:57:24;;;;;;;15.00;7.30;;;;;;;5.09;100.00;101788.31;6077764;19;20002;-71
2023/12/27 05:59:29;;;;;;;20.08;8.02;;;;;;;5.07;100.00;101782.22;6081772;19;20010;-72
2023/12/27 06:01:34;;;;;;;22.35;7.25;;;;;;;5.05;100.00;101777.03;6082534;19;20689;-73
2023/12/27 06:03:42;;;;;;;19.23;7.38;;;;;;;5.10;100.00;101769.19;6080363;19;20007;-72
2023/12/27 06:05:47;;;;;;;14.30;7.10;;;;;;;5.08;100.00;101773.53;6083191;19;20006;-72
2023/12/27 06:07:53;;;;;;;17.60;6.90;;;;;;;5.12;100.00;101766.59;6082114;19;20002;-72
2023/12/27 06:09:58;;;;;;;17.60;6.82;;;;;;;5.16;100.00;101766.56;6079403;19;20526;-72
2023/12/27 06:12:03;;;;;;;23.05;7.25;;;;;;;5.17;100.00;101757.88;6083760;19;20440;-73
2023/12/27 06:14:09;;;;;;;16.70;6.78;;;;;;;5.19;100.00;101756.13;6075034;19;20007;-73
2023/12/27 06:16:16;;;;;;;13.93;6.95;;;;;;;5.22;100.00;101750.91;6080273;19;20414;-72
2023/12/27 06:18:21;;;;;;;13.95;7.10;;;;;;;5.18;100.00;101748.31;6081730;19;20033;-72
2023/12/27 06:20:29;;;;;;;15.13;7.50;;;;;;;5.22;100.00;101744.84;6079210;19;20412;-73
2023/12/27 06:22:31;;;;;;;17.70;7.63;;;;;;;5.21;100.00;101737.88;6080388;19;19999;-74
2023/12/27 06:24:36;;;;;;;21.13;8.60;;;;;;;5.23;100.00;101721.34;6079854;19;20724;-74
2023/12/27 06:26:41;;;;;;;17.33;6.88;;;;;;;5.23;100.00;101713.53;6079392;19;20595;-73
2023/12/27 06:28:46;;;;;;;18.95;7.07;;;;;;;5.22;100.00;101711.81;6080099;19;20430;-72
2023/12/27 06:30:51;;;;;;;29.65;8.32;;;;;;;5.21;100.00;101715.31;6078384;19;20011;-74
2023/12/27 06:32:57;;;;;;;19.95;7.93;;;;;;;5.23;100.00;101707.47;6080407;19;20010;-74
2023/12/27 06:35:05;;;;;;;16.90;6.95;;;;;;;5.21;100.00;101702.28;6079012;19;21259;-74
2023/12/27 06:37:12;;;;;;;23.45;7.35;;;;;;;5.23;100.00;101691.84;6079994;19;20049;-74
2023/12/27 06:39:17;;;;;;;14.82;6.40;;;;;;;5.25;100.00;101688.34;6074026;19;20405;-73
2023/12/27 06:41:23;;;;;;;14.60;6.88;;;;;;;5.25;100.00;101685.75;6076147;19;20013;-72
2023/12/27 06:43:25;;;;;;;21.42;6.82;;;;;;;5.30;100.00;101672.69;6079275;19;20024;-73
2023/12/27 06:45:30;;;;;;;18.23;6.30;;;;;;;5.29;100.00;101676.16;6073849;19;20094;-74
2023/12/27 06:47:35;;;;;;;19.20;7.63;;;;;;;5.29;100.00;101683.97;6080076;19;20076;-73
2023/12/27 06:49:42;;;;;;;7.35;5.43;;;;;;;5.35;100.00;101683.09;6080951;19;20348;-74
2023/12/27 06:51:47;;;;;;;14.48;7.32;;;;;;;5.35;100.00;101689.19;6081739;19;20014;-72
2023/12/27 06:53:55;;;;;;;22.60;7.90;;;;;;;5.36;100.00;101690.91;6075901;19;20344;-73
2023/12/27 06:56:00;;;;;;;16.13;6.97;;;;;;;5.41;100.00;101689.13;6079525;19;20034;-73
2023/12/27 06:58:05;;;;;;;18.85;7.10;;;;;;;5.39;100.00;101682.19;6079176;19;20021;-75
2023/12/27 07:00:12;;;;;;;19.88;7.18;;;;;;;5.44;100.00;101685.66;6078423;19;20038;-74
2023/12/27 07:02:19;;;;;;;17.85;6.63;;;;;;;5.43;100.00;101678.72;6080905;19;20056;-74
2023/12/27 07:04:24;;;;;;;18.58;7.20;;;;;;;5.47;100.00;101677.81;6080373;19;20006;-75
2023/12/27 07:06:29;;;;;;;15.18;6.22;;;;;;;5.48;100.00;101667.38;6080185;19;20011;-74
2023/12/27 07:08:32;;;;;;;16.70;7.13;;;;;;;5.46;100.00;101673.47;6080475;19;20451;-73
2023/12/27 07:10:39;;;;;;;;;;;;;;;5.46;100.00;101665.66;6080272;19;20073;-73
2023/12/27 07:12:44;;;;;;;11.70;5.95;;;;;;;5.48;100.00;101667.38;6078656;19;20312;-74
2023/12/27 07:14:49;;;;;;;13.95;7.63;;;;;;;5.54;100.00;101666.47;6080188;19;20343;-73
2023/12/27 07:16:55;;;;;;;15.02;7.05;;;;;;;5.56;100.00;101666.47;6079477;19;20030;-73
2023/12/27 07:19:01;;;;;;;15.27;6.38;;;;;;;5.58;100.00;101664.69;6076347;19;20458;-73
2023/12/27 07:21:07;;;;;;;14.43;7.25;;;;;;;5.57;100.00;101653.41;6079534;19;20478;-74
2023/12/27 07:23:12;;;;;;;13.93;7.28;;;;;;;5.62;100.00;101662.06;6080073;19;20007;-73
2023/12/27 07:25:17;;;;;;;19.65;7.05;;;;;;;5.62;100.00;101654.25;6076864;19;20007;-72
2023/12/27 07:27:25;;;;;;;13.10;6.80;;;;;;;5.62;100.00;101650.78;6081502;19;20015;-74
2023/12/27 07:29:30;;;;;;;10.27;5.80;;;;;;;5.64;100.00;101654.25;6081419;19;20010;-73
2023/12/27 07:31:35;;;;;;;13.40;7.82;;;;;;;5.68;100.00;101648.13;6081131;19;20003;-74
2023/12/27 07:33:43;;;;;;;12.10;6.70;;;;;;;5.67;100.00;101644.66;6086271;19;20558;-74
2023/12/27 07:35:49;;;;;;;13.77;6.75;;;;;;;5.66;100.00;101645.53;6086274;19;20019;-75
2023/12/27 07:37:51;;;;;;;13.07;6.45;;;;;;;5.67;100.00;101639.44;6085588;19;20010;-73
2023/12/27 07:39:57;;;;;;;15.75;7.78;;;;;;;5.72;100.00;101640.28;6084274;19;20520;-73
2023/12/27 07:41:59;;;;;;;14.40;7.15;;;;;;;5.71;100.00;101643.75;6085249;19;20010;-74
2023/12/27 07:44:07;;;;;;;12.55;7.63;;;;;;;5.78;100.00;101641.97;6084695;19;20010;-74
2023/12/27 07:46:09;;;;;;;12.32;7.70;;;;;;;5.77;100.00;101642.84;6086660;19;20030;-74
2023/12/27 07:48:14;;;;;;;15.18;7.35;;;;;;;5.78;100.00;101635.88;6084508;19;20459;-74
2023/12/27 07:50:19;;;;;;;15.40;6.93;;;;;;;5.79;100.00;101633.25;6084799;19;20438;-74
2023/12/27 07:52:24;;;;;;;15.57;7.63;;;;;;;5.80;100.00;101631.53;6080759;19;20014;-74
2023/12/27 07:54:31;;;;;;;12.18;6.32;;;;;;;5.84;100.00;101635.81;6084742;19;20014;-73
2023/12/27 07:56:36;;;;;;;12.55;7.38;;;;;;;5.87;100.00;101630.56;6083193;19;20014;-73
2023/12/27 07:58:41;;;;;;;16.88;7.93;;;;;;;5.88;100.00;101624.50;6084626;19;20074;-73
2023/12/27 08:00:49;;;;;;;14.93;7.88;;;;;;;5.87;100.00;101625.38;6078765;19;20006;-74
2023/12/27 08:02:55;;;;;;;13.35;7.07;;;;;;;5.87;100.00;101621.03;6083269;19;20023;-74
2023/12/27 08:05:00;;;;;;;15.18;7.28;;;;;;;5.96;100.00;101612.28;6079751;19;20049;-73
2023/12/27 08:07:03;;;;;;;12.10;6.45;;;;;;;5.94;100.00;101598.38;6084517;19;20609;-73
2023/12/27 08:09:08;;;;;;;13.90;6.95;;;;;;;6.04;100.00;101604.41;6085380;19;20038;-73
2023/12/27 08:11:15;;;;;;;11.10;5.95;;;;;;;6.03;100.00;101602.66;6084264;19;20078;-73
2023/12/27 08:13:20;;;;;;;11.43;6.78;;;;;;;6.06;100.00;101593.06;6081241;19;20009;-71
2023/12/27 08:15:22;;;;;;;13.30;7.00;;;;;;;6.12;100.00;101586.91;6084613;19;20010;-73
2023/12/27 08:17:30;;;;;;;10.48;5.95;;;;;;;6.17;100.00;101584.25;6085178;19;20542;-73
2023/12/27 08:19:35;;;;;;;13.80;7.10;;;;;;;6.14;100.00;101588.63;6082094;19;20007;-73
2023/12/27 08:21:40;;;;;;;14.43;7.50;;;;;;;6.15;100.00;101574.69;6079935;19;20058;-73
2023/12/27 08:23:45;;;;;;;13.77;7.25;;;;;;;6.21;100.00;101575.50;6083995;19;20026;-71
2023/12/27 08:25:48;;;;;;;13.88;6.97;;;;;;;6.23;100.00;101581.56;6084706;19;20566;-71
2023/12/27 08:27:54;;;;;;;17.20;9.38;;;;;;;6.20;100.00;101576.41;6084667;19;20117;-72
2023/12/27 08:29:59;;;;;;;16.45;7.25;;;;;;;6.25;100.00;101572.84;6086643;19;20031;-71
2023/12/27 08:32:04;;;;;;;16.88;7.28;;;;;;;6.33;100.00;101568.41;6083773;19;20019;-71
2023/12/27 08:34:15;;;;;;;15.43;7.78;;;;;;;6.37;100.00;101557.06;6085380;19;20050;-71
2023/12/27 08:36:20;;;;;;;20.42;9.57;;;;;;;6.47;100.00;101559.56;6085818;19;20283;-72
2023/12/27 08:38:26;;;;;;;16.67;9.60;;;;;;;6.46;100.00;101568.28;6085842;19;20011;-70
2023/12/27 08:40:31;;;;;;;20.45;10.13;;;;;;;6.44;100.00;101570.91;6082187;19;20006;-71
2023/12/27 08:42:36;;;;;;;17.65;9.82;;;;;;;6.45;100.00;101556.97;6084931;19;20014;-70
2023/12/27 08:44:41;;;;;;;23.27;9.45;;;;;;;6.53;100.00;101546.41;6082978;19;20383;-70
2023/12/27 08:46:46;;;;;;;24.90;9.77;;;;;;;6.62;100.00;101535.88;6084060;19;20395;-73
2023/12/27 08:48:50;;;;;;;18.92;9.23;;;;;;;6.66;100.00;101541.91;6085890;19;20038;-74
2023/12/27 08:50:59;;;;;;;21.95;9.77;;;;;;;6.64;100.00;101546.31;6083433;19;20525;-73
2023/12/27 08:53:04;;;;;;;23.33;10.57;;;;;;;6.70;100.00;101541.00;6079127;19;20003;-73
2023/12/27 08:55:10;;;;;;;20.98;11.48;;;;;;;6.72;100.00;101547.94;6084584;19;20030;-73
2023/12/27 08:57:13;;;;;;;27.13;12.48;;;;;;;6.74;100.00;101545.28;6080144;19;20006;-74
2023/12/27 08:59:18;;;;;;;25.98;12.75;;;;;;;6.79;100.00;101533.00;6084141;19;20011;-73
2023/12/27 09:01:22;;;;;;;27.27;12.43;;;;;;;6.90;100.00;101531.13;6082700;19;20007;-74
2023/12/27 09:03:28;;;;;;;28.33;12.55;;;;;;;6.97;100.00;101534.50;6084264;19;20010;-73
2023/12/27 09:05:33;;;;;;;27.25;13.68;;;;;;;7.02;100.00;101532.69;6084211;19;20463;-74
2023/12/27 09:07:41;;;;;;;38.65;14.50;;;;;;;7.04;100.00;101530.94;6083289;19;20007;-73
2023/12/27 09:09:46;;;;;;;30.50;13.57;;;;;;;7.07;100.00;101523.03;6082370;19;20002;-72
2023/12/27 09:11:51;;;;;;;25.90;13.45;;;;;;;7.19;100.00;101520.25;6081494;19;20681;-75
2023/12/27 09:13:58;;;;;;;36.28;13.43;;;;;;;7.16;100.00;101528.16;6082086;19;20073;-74
2023/12/27 09:16:04;;;;;;;29.17;14.30;;;;;;;7.16;100.00;101528.16;6081789;19;20011;-71
2023/12/27 09:18:09;;;;;;;30.50;14.43;;;;;;;7.18;100.00;101526.34;6084305;19;20034;-71
2023/12/27 09:20:15;;;;;;;32.22;13.63;;;;;;;7.26;100.00;101531.47;6083391;19;20018;-73
2023/12/27 09:22:20;;;;;;;31.50;13.63;;;;;;;7.32;100.00;101534.00;6082428;19;20023;-74
2023/12/27 09:24:32;;;;;;;31.33;15.13;;;;;;;7.33;100.00;101532.25;6080582;19;20011;-74
2023/12/27 09:26:37;;;;;;;28.83;13.80;;;;;;;7.36;100.00;101522.59;6082173;19;20430;-75
2023/12/27 09:28:41;;;;;;;33.60;13.55;;;;;;;7.42;100.00;101514.63;6081977;19;20339;-71
2023/12/27 09:30:47;;;;;;;32.05;13.32;;;;;;;7.40;100.00;101507.72;6080020;19;20003;-72
2023/12/27 09:32:52;;;;;;;29.90;14.35;;;;;;;7.38;100.00;101510.34;6076101;19;20007;-72
2023/12/27 09:34:58;;;;;;;35.75;14.73;;;;;;;7.43;100.00;101505.06;6081226;19;20075;-76
2023/12/27 09:37:03;;;;;;;32.40;14.52;;;;;;;7.51;100.00;101502.31;6080844;19;20007;-70